<?xml version="1.0" encoding="UTF-8" standalone="no" ?>
<gpx xmlns="http://www.topografix.com/GPX/1/1" xmlns:xsi="http://www.w3.org/2001/XMLSchema-instance" xsi:schemaLocation="http://www.topografix.com/GPX/1/1 http://www.topografix.com/GPX/1/1/gpx.xsd" version="1.1" creator="VisuGPX - https://www.visugpx.com">
  <metadata>
    <name>Edirne-Zagreb</name>
  </metadata>
  <trk>
    <name><![CDATA[Tour d'Europe: étape 703]]></name>
    <extensions>
      <line xmlns="http://www.topografix.com/GPX/gpx_style/0/2">
        <color>00FFFF</color>
        <width>4</width>
      </line>
    </extensions>
    <trkseg>
      <trkpt lat="42.45168" lon="18.54455">
        <ele>82.810271</ele>
        <time>2022-06-01T08:17:21.867Z</time>
      </trkpt>
      <trkpt lat="42.45138" lon="18.54408">
        <ele>81.404762</ele>
        <time>2022-06-01T08:21:02.615Z</time>
      </trkpt>
      <trkpt lat="42.45095" lon="18.54713">
        <ele>74.57374</ele>
        <time>2022-06-01T08:21:57.600Z</time>
      </trkpt>
      <trkpt lat="42.45035" lon="18.54758">
        <ele>60.951216</ele>
        <time>2022-06-01T08:23:20.586Z</time>
      </trkpt>
      <trkpt lat="42.44956" lon="18.54556">
        <ele>43.153124</ele>
        <time>2022-06-01T08:24:30.586Z</time>
      </trkpt>
      <trkpt lat="42.45039" lon="18.54264">
        <ele>42.054272</ele>
        <time>2022-06-01T08:25:33.588Z</time>
      </trkpt>
      <trkpt lat="42.44988" lon="18.53969">
        <ele>45.967628</ele>
        <time>2022-06-01T08:26:39.617Z</time>
      </trkpt>
      <trkpt lat="42.44946" lon="18.53676">
        <ele>43.83254</ele>
        <time>2022-06-01T08:27:39.582Z</time>
      </trkpt>
      <trkpt lat="42.45071" lon="18.53425">
        <ele>48.908478</ele>
        <time>2022-06-01T08:28:35.589Z</time>
      </trkpt>
      <trkpt lat="42.45178" lon="18.53149">
        <ele>49.169422</ele>
        <time>2022-06-01T08:29:30.585Z</time>
      </trkpt>
      <trkpt lat="42.45311" lon="18.529">
        <ele>39.629475</ele>
        <time>2022-06-01T08:30:34.577Z</time>
      </trkpt>
      <trkpt lat="42.45415" lon="18.5262">
        <ele>40.857176</ele>
        <time>2022-06-01T08:31:37.577Z</time>
      </trkpt>
      <trkpt lat="42.45611" lon="18.52469">
        <ele>47.119701</ele>
        <time>2022-06-01T08:32:37.588Z</time>
      </trkpt>
      <trkpt lat="42.45724" lon="18.52205">
        <ele>44.98028</ele>
        <time>2022-06-01T08:33:42.583Z</time>
      </trkpt>
      <trkpt lat="42.45849" lon="18.51929">
        <ele>38.546883</ele>
        <time>2022-06-01T08:34:45.594Z</time>
      </trkpt>
      <trkpt lat="42.45919" lon="18.51655">
        <ele>44.165543</ele>
        <time>2022-06-01T08:35:41.576Z</time>
      </trkpt>
      <trkpt lat="42.45817" lon="18.51365">
        <ele>46.025703</ele>
        <time>2022-06-01T08:36:44.590Z</time>
      </trkpt>
      <trkpt lat="42.45681" lon="18.5112">
        <ele>50.321058</ele>
        <time>2022-06-01T08:37:48.579Z</time>
      </trkpt>
      <trkpt lat="42.45529" lon="18.50884">
        <ele>43.81845</ele>
        <time>2022-06-01T08:38:47.579Z</time>
      </trkpt>
      <trkpt lat="42.45412" lon="18.50632">
        <ele>39.156875</ele>
        <time>2022-06-01T08:39:47.582Z</time>
      </trkpt>
      <trkpt lat="42.45535" lon="18.50393">
        <ele>40.76575</ele>
        <time>2022-06-01T08:40:58.578Z</time>
      </trkpt>
      <trkpt lat="42.45545" lon="18.50097">
        <ele>44.878906</ele>
        <time>2022-06-01T08:41:55.576Z</time>
      </trkpt>
      <trkpt lat="42.45518" lon="18.49781">
        <ele>42.724609</ele>
        <time>2022-06-01T08:42:49.571Z</time>
      </trkpt>
      <trkpt lat="42.45655" lon="18.49542">
        <ele>41.939822</ele>
        <time>2022-06-01T08:43:40.579Z</time>
      </trkpt>
      <trkpt lat="42.45717" lon="18.49218">
        <ele>46.584786</ele>
        <time>2022-06-01T08:44:38.570Z</time>
      </trkpt>
      <trkpt lat="42.45921" lon="18.49003">
        <ele>48.497152</ele>
        <time>2022-06-01T08:45:41.602Z</time>
      </trkpt>
      <trkpt lat="42.46085" lon="18.48781">
        <ele>51.360301</ele>
        <time>2022-06-01T08:46:42.590Z</time>
      </trkpt>
      <trkpt lat="42.46241" lon="18.48596">
        <ele>55.89591</ele>
        <time>2022-06-01T08:47:48.589Z</time>
      </trkpt>
      <trkpt lat="42.46432" lon="18.48493">
        <ele>56.946676</ele>
        <time>2022-06-01T08:48:52.592Z</time>
      </trkpt>
      <trkpt lat="42.46611" lon="18.48359">
        <ele>58.256791</ele>
        <time>2022-06-01T08:49:57.590Z</time>
      </trkpt>
      <trkpt lat="42.46798" lon="18.48237">
        <ele>62.497493</ele>
        <time>2022-06-01T08:51:04.624Z</time>
      </trkpt>
      <trkpt lat="42.46995" lon="18.48087">
        <ele>59.991603</ele>
        <time>2022-06-01T08:52:07.591Z</time>
      </trkpt>
      <trkpt lat="42.47164" lon="18.47885">
        <ele>55.841595</ele>
        <time>2022-06-01T08:53:07.594Z</time>
      </trkpt>
      <trkpt lat="42.47281" lon="18.47647">
        <ele>62.281014</ele>
        <time>2022-06-01T08:54:14.588Z</time>
      </trkpt>
      <trkpt lat="42.47386" lon="18.47388">
        <ele>63.875468</ele>
        <time>2022-06-01T08:55:30.590Z</time>
      </trkpt>
      <trkpt lat="42.47483" lon="18.47149">
        <ele>66.458657</ele>
        <time>2022-06-01T08:56:32.611Z</time>
      </trkpt>
      <trkpt lat="42.47566" lon="18.46868">
        <ele>71.58318</ele>
        <time>2022-06-01T08:57:35.615Z</time>
      </trkpt>
      <trkpt lat="42.4761" lon="18.46584">
        <ele>76.770254</ele>
        <time>2022-06-01T08:58:49.578Z</time>
      </trkpt>
      <trkpt lat="42.47723" lon="18.46326">
        <ele>81.082666</ele>
        <time>2022-06-01T09:00:12.575Z</time>
      </trkpt>
      <trkpt lat="42.47862" lon="18.46102">
        <ele>87.871102</ele>
        <time>2022-06-01T09:01:39.592Z</time>
      </trkpt>
      <trkpt lat="42.47956" lon="18.45851">
        <ele>92.753023</ele>
        <time>2022-06-01T09:03:01.576Z</time>
      </trkpt>
      <trkpt lat="42.48119" lon="18.45657">
        <ele>99.135</ele>
        <time>2022-06-01T09:04:18.553Z</time>
      </trkpt>
      <trkpt lat="42.48158" lon="18.45347">
        <ele>104.268675</ele>
        <time>2022-06-01T09:10:05.589Z</time>
      </trkpt>
      <trkpt lat="42.4818" lon="18.45092">
        <ele>122.687537</ele>
        <time>2022-06-01T09:12:24.601Z</time>
      </trkpt>
      <trkpt lat="42.48218" lon="18.44832">
        <ele>137.940518</ele>
        <time>2022-06-01T09:15:02.587Z</time>
      </trkpt>
      <trkpt lat="42.48348" lon="18.44628">
        <ele>157.246555</ele>
        <time>2022-06-01T09:17:44.566Z</time>
      </trkpt>
      <trkpt lat="42.4842" lon="18.4439">
        <ele>175.507496</ele>
        <time>2022-06-01T09:20:21.559Z</time>
      </trkpt>
      <trkpt lat="42.48497" lon="18.44137">
        <ele>191.334134</ele>
        <time>2022-06-01T09:23:03.571Z</time>
      </trkpt>
      <trkpt lat="42.48581" lon="18.43894">
        <ele>203.381493</ele>
        <time>2022-06-01T09:25:44.555Z</time>
      </trkpt>
      <trkpt lat="42.48736" lon="18.43758">
        <ele>213.171904</ele>
        <time>2022-06-01T09:28:17.583Z</time>
      </trkpt>
      <trkpt lat="42.48864" lon="18.43553">
        <ele>231.005853</ele>
        <time>2022-06-01T09:30:48.571Z</time>
      </trkpt>
      <trkpt lat="42.49035" lon="18.43424">
        <ele>246.222278</ele>
        <time>2022-06-01T09:33:20.559Z</time>
      </trkpt>
      <trkpt lat="42.49233" lon="18.43124">
        <ele>236.522295</ele>
        <time>2022-06-01T09:39:30.598Z</time>
      </trkpt>
      <trkpt lat="42.4937" lon="18.42755">
        <ele>224.910731</ele>
        <time>2022-06-01T09:40:05.587Z</time>
      </trkpt>
      <trkpt lat="42.49499" lon="18.42551">
        <ele>214.984382</ele>
        <time>2022-06-01T09:40:26.590Z</time>
      </trkpt>
      <trkpt lat="42.49638" lon="18.42344">
        <ele>197.6787</ele>
        <time>2022-06-01T09:40:47.582Z</time>
      </trkpt>
      <trkpt lat="42.49813" lon="18.42139">
        <ele>178.575602</ele>
        <time>2022-06-01T09:41:08.558Z</time>
      </trkpt>
      <trkpt lat="42.49975" lon="18.41965">
        <ele>165.785438</ele>
        <time>2022-06-01T09:41:28.675Z</time>
      </trkpt>
      <trkpt lat="42.50136" lon="18.41765">
        <ele>155.778433</ele>
        <time>2022-06-01T09:41:49.593Z</time>
      </trkpt>
      <trkpt lat="42.50312" lon="18.41514">
        <ele>149.246965</ele>
        <time>2022-06-01T09:42:18.584Z</time>
      </trkpt>
      <trkpt lat="42.50427" lon="18.41218">
        <ele>150.494897</ele>
        <time>2022-06-01T09:42:58.610Z</time>
      </trkpt>
      <trkpt lat="42.50543" lon="18.40938">
        <ele>148.950018</ele>
        <time>2022-06-01T09:43:44.602Z</time>
      </trkpt>
      <trkpt lat="42.50621" lon="18.40657">
        <ele>145.61411</ele>
        <time>2022-06-01T09:44:37.582Z</time>
      </trkpt>
      <trkpt lat="42.5059" lon="18.40383">
        <ele>141.852805</ele>
        <time>2022-06-01T09:45:17.588Z</time>
      </trkpt>
      <trkpt lat="42.50691" lon="18.40108">
        <ele>133.295252</ele>
        <time>2022-06-01T09:46:29.621Z</time>
      </trkpt>
      <trkpt lat="42.50774" lon="18.39893">
        <ele>128.329444</ele>
        <time>2022-06-01T09:48:43.589Z</time>
      </trkpt>
      <trkpt lat="42.50869" lon="18.39622">
        <ele>128.78729</ele>
        <time>2022-06-01T09:50:05.615Z</time>
      </trkpt>
      <trkpt lat="42.5096" lon="18.39355">
        <ele>125.137203</ele>
        <time>2022-06-01T09:51:38.592Z</time>
      </trkpt>
      <trkpt lat="42.51083" lon="18.39141">
        <ele>120.628281</ele>
        <time>2022-06-01T09:53:06.569Z</time>
      </trkpt>
      <trkpt lat="42.51198" lon="18.38905">
        <ele>115.64911</ele>
        <time>2022-06-01T09:54:48.588Z</time>
      </trkpt>
      <trkpt lat="42.51271" lon="18.38642">
        <ele>111.681863</ele>
        <time>2022-06-01T09:56:29.590Z</time>
      </trkpt>
      <trkpt lat="42.51375" lon="18.38414">
        <ele>107.852662</ele>
        <time>2022-06-01T09:58:08.577Z</time>
      </trkpt>
      <trkpt lat="42.51483" lon="18.38146">
        <ele>107.722741</ele>
        <time>2022-06-01T09:59:16.572Z</time>
      </trkpt>
      <trkpt lat="42.51639" lon="18.37877">
        <ele>107.023911</ele>
        <time>2022-06-01T10:00:14.567Z</time>
      </trkpt>
      <trkpt lat="42.51742" lon="18.37595">
        <ele>106.697826</ele>
        <time>2022-06-01T10:01:14.589Z</time>
      </trkpt>
      <trkpt lat="42.51904" lon="18.37532">
        <ele>103.519789</ele>
        <time>2022-06-01T10:08:26.560Z</time>
      </trkpt>
      <trkpt lat="42.52103" lon="18.37665">
        <ele>102.453601</ele>
        <time>2022-06-01T10:09:25.603Z</time>
      </trkpt>
      <trkpt lat="42.52302" lon="18.37717">
        <ele>107.106952</ele>
        <time>2022-06-01T10:10:33.581Z</time>
      </trkpt>
      <trkpt lat="42.52512" lon="18.37785">
        <ele>108.716635</ele>
        <time>2022-06-01T10:11:57.629Z</time>
      </trkpt>
      <trkpt lat="42.52709" lon="18.37847">
        <ele>107.580914</ele>
        <time>2022-06-01T10:12:49.581Z</time>
      </trkpt>
      <trkpt lat="42.52923" lon="18.37844">
        <ele>104.986834</ele>
        <time>2022-06-01T10:13:42.606Z</time>
      </trkpt>
      <trkpt lat="42.53186" lon="18.37744">
        <ele>99.557641</ele>
        <time>2022-06-01T10:14:36.596Z</time>
      </trkpt>
      <trkpt lat="42.53374" lon="18.37811">
        <ele>98.161999</ele>
        <time>2022-06-01T10:15:22.590Z</time>
      </trkpt>
      <trkpt lat="42.53421" lon="18.37611">
        <ele>101.998516</ele>
        <time>2022-06-01T10:16:34.612Z</time>
      </trkpt>
      <trkpt lat="42.53455" lon="18.37338">
        <ele>105.81424</ele>
        <time>2022-06-01T10:18:13.577Z</time>
      </trkpt>
      <trkpt lat="42.53491" lon="18.37069">
        <ele>108.609771</ele>
        <time>2022-06-01T10:19:33.567Z</time>
      </trkpt>
      <trkpt lat="42.53533" lon="18.36779">
        <ele>111.903993</ele>
        <time>2022-06-01T10:21:01.579Z</time>
      </trkpt>
      <trkpt lat="42.53569" lon="18.36478">
        <ele>111.516903</ele>
        <time>2022-06-01T10:22:09.583Z</time>
      </trkpt>
      <trkpt lat="42.53636" lon="18.36214">
        <ele>113.418459</ele>
        <time>2022-06-01T10:23:15.571Z</time>
      </trkpt>
      <trkpt lat="42.53712" lon="18.3594">
        <ele>112.865082</ele>
        <time>2022-06-01T10:24:22.587Z</time>
      </trkpt>
      <trkpt lat="42.53796" lon="18.35647">
        <ele>110.745033</ele>
        <time>2022-06-01T10:25:27.587Z</time>
      </trkpt>
      <trkpt lat="42.53865" lon="18.35365">
        <ele>109.338013</ele>
        <time>2022-06-01T10:26:15.589Z</time>
      </trkpt>
      <trkpt lat="42.53929" lon="18.3507">
        <ele>107.89824</ele>
        <time>2022-06-01T10:27:05.579Z</time>
      </trkpt>
      <trkpt lat="42.54001" lon="18.34797">
        <ele>106.344915</ele>
        <time>2022-06-01T10:27:51.570Z</time>
      </trkpt>
      <trkpt lat="42.54108" lon="18.34515">
        <ele>104.716591</ele>
        <time>2022-06-01T10:28:40.612Z</time>
      </trkpt>
      <trkpt lat="42.54234" lon="18.3424">
        <ele>104.837327</ele>
        <time>2022-06-01T10:29:31.561Z</time>
      </trkpt>
      <trkpt lat="42.54413" lon="18.34144">
        <ele>107.249147</ele>
        <time>2022-06-01T10:30:40.647Z</time>
      </trkpt>
      <trkpt lat="42.54598" lon="18.34095">
        <ele>114.636025</ele>
        <time>2022-06-01T10:32:16.602Z</time>
      </trkpt>
      <trkpt lat="42.54767" lon="18.34249">
        <ele>125.528949</ele>
        <time>2022-06-01T10:34:31.559Z</time>
      </trkpt>
      <trkpt lat="42.54874" lon="18.34037">
        <ele>131.360386</ele>
        <time>2022-06-01T10:38:25.555Z</time>
      </trkpt>
      <trkpt lat="42.55047" lon="18.33878">
        <ele>128.227453</ele>
        <time>2022-06-01T10:39:21.559Z</time>
      </trkpt>
      <trkpt lat="42.55181" lon="18.33641">
        <ele>130.186469</ele>
        <time>2022-06-01T10:40:14.551Z</time>
      </trkpt>
      <trkpt lat="42.55322" lon="18.33398">
        <ele>126.772814</ele>
        <time>2022-06-01T10:40:59.576Z</time>
      </trkpt>
      <trkpt lat="42.55457" lon="18.33128">
        <ele>122.103838</ele>
        <time>2022-06-01T10:41:54.549Z</time>
      </trkpt>
      <trkpt lat="42.55469" lon="18.32802">
        <ele>117.760119</ele>
        <time>2022-06-01T10:42:43.551Z</time>
      </trkpt>
      <trkpt lat="42.55486" lon="18.32498">
        <ele>117.296394</ele>
        <time>2022-06-01T10:43:34.552Z</time>
      </trkpt>
      <trkpt lat="42.5551" lon="18.3221">
        <ele>114.807337</ele>
        <time>2022-06-01T10:44:16.551Z</time>
      </trkpt>
      <trkpt lat="42.55547" lon="18.31936">
        <ele>113.26728</ele>
        <time>2022-06-01T10:45:00.585Z</time>
      </trkpt>
      <trkpt lat="42.55609" lon="18.31673">
        <ele>111.144395</ele>
        <time>2022-06-01T10:45:41.555Z</time>
      </trkpt>
      <trkpt lat="42.55685" lon="18.31377">
        <ele>109.542381</ele>
        <time>2022-06-01T10:46:35.604Z</time>
      </trkpt>
      <trkpt lat="42.5574" lon="18.31073">
        <ele>111.676051</ele>
        <time>2022-06-01T10:47:38.598Z</time>
      </trkpt>
      <trkpt lat="42.55739" lon="18.30775">
        <ele>109.252156</ele>
        <time>2022-06-01T10:48:44.586Z</time>
      </trkpt>
      <trkpt lat="42.55795" lon="18.3046">
        <ele>110.517211</ele>
        <time>2022-06-01T10:49:44.622Z</time>
      </trkpt>
      <trkpt lat="42.5584" lon="18.30181">
        <ele>108.841349</ele>
        <time>2022-06-01T10:50:33.592Z</time>
      </trkpt>
      <trkpt lat="42.55928" lon="18.29907">
        <ele>109.055871</ele>
        <time>2022-06-01T10:51:34.582Z</time>
      </trkpt>
      <trkpt lat="42.55998" lon="18.29624">
        <ele>110.93409</ele>
        <time>2022-06-01T10:52:43.592Z</time>
      </trkpt>
      <trkpt lat="42.56065" lon="18.2938">
        <ele>110.230114</ele>
        <time>2022-06-01T10:53:25.586Z</time>
      </trkpt>
      <trkpt lat="42.56115" lon="18.29063">
        <ele>109.814283</ele>
        <time>2022-06-01T10:54:28.589Z</time>
      </trkpt>
      <trkpt lat="42.56159" lon="18.28763">
        <ele>115.0323</ele>
        <time>2022-06-01T10:55:34.603Z</time>
      </trkpt>
      <trkpt lat="42.56256" lon="18.28534">
        <ele>126.839551</ele>
        <time>2022-06-01T10:56:57.571Z</time>
      </trkpt>
      <trkpt lat="42.56355" lon="18.28272">
        <ele>125.772045</ele>
        <time>2022-06-01T10:58:16.587Z</time>
      </trkpt>
      <trkpt lat="42.56452" lon="18.28013">
        <ele>126.625325</ele>
        <time>2022-06-01T10:59:40.594Z</time>
      </trkpt>
      <trkpt lat="42.5654" lon="18.27772">
        <ele>132.57298</ele>
        <time>2022-06-01T11:01:06.608Z</time>
      </trkpt>
      <trkpt lat="42.56649" lon="18.2753">
        <ele>129.902471</ele>
        <time>2022-06-01T11:02:28.613Z</time>
      </trkpt>
      <trkpt lat="42.56758" lon="18.2728">
        <ele>131.161309</ele>
        <time>2022-06-01T11:03:37.574Z</time>
      </trkpt>
      <trkpt lat="42.56857" lon="18.27039">
        <ele>135.223399</ele>
        <time>2022-06-01T11:05:01.581Z</time>
      </trkpt>
      <trkpt lat="42.56973" lon="18.26788">
        <ele>138.078463</ele>
        <time>2022-06-01T11:06:13.592Z</time>
      </trkpt>
      <trkpt lat="42.57063" lon="18.2654">
        <ele>142.250553</ele>
        <time>2022-06-01T11:07:51.582Z</time>
      </trkpt>
      <trkpt lat="42.57142" lon="18.26278">
        <ele>144.635325</ele>
        <time>2022-06-01T11:09:20.592Z</time>
      </trkpt>
      <trkpt lat="42.57227" lon="18.26002">
        <ele>148.864557</ele>
        <time>2022-06-01T11:10:31.581Z</time>
      </trkpt>
      <trkpt lat="42.57294" lon="18.25728">
        <ele>151.953012</ele>
        <time>2022-06-01T11:11:51.546Z</time>
      </trkpt>
      <trkpt lat="42.57362" lon="18.25443">
        <ele>153.922213</ele>
        <time>2022-06-01T11:13:15.550Z</time>
      </trkpt>
      <trkpt lat="42.57449" lon="18.25189">
        <ele>161.687844</ele>
        <time>2022-06-01T11:14:44.581Z</time>
      </trkpt>
      <trkpt lat="42.57485" lon="18.24924">
        <ele>161.220179</ele>
        <time>2022-06-01T11:16:06.576Z</time>
      </trkpt>
      <trkpt lat="42.5755" lon="18.24696">
        <ele>168.981672</ele>
        <time>2022-06-01T11:19:53.592Z</time>
      </trkpt>
      <trkpt lat="42.5763" lon="18.24429">
        <ele>174.848615</ele>
        <time>2022-06-01T11:21:18.570Z</time>
      </trkpt>
      <trkpt lat="42.57759" lon="18.24305">
        <ele>175.890083</ele>
        <time>2022-06-01T11:48:46.559Z</time>
      </trkpt>
      <trkpt lat="42.57851" lon="18.24232">
        <ele>180.443886</ele>
        <time>2022-06-01T11:50:07.575Z</time>
      </trkpt>
      <trkpt lat="42.57784" lon="18.23964">
        <ele>162.620096</ele>
        <time>2022-06-01T11:59:56.599Z</time>
      </trkpt>
      <trkpt lat="42.57853" lon="18.23709">
        <ele>143.993953</ele>
        <time>2022-06-01T12:00:48.581Z</time>
      </trkpt>
      <trkpt lat="42.58091" lon="18.23517">
        <ele>127.794543</ele>
        <time>2022-06-01T12:01:24.641Z</time>
      </trkpt>
      <trkpt lat="42.5834" lon="18.23443">
        <ele>115.201927</ele>
        <time>2022-06-01T12:01:52.543Z</time>
      </trkpt>
      <trkpt lat="42.58543" lon="18.23265">
        <ele>109.35378</ele>
        <time>2022-06-01T12:02:19.542Z</time>
      </trkpt>
      <trkpt lat="42.58746" lon="18.23125">
        <ele>115.454363</ele>
        <time>2022-06-01T12:03:29.552Z</time>
      </trkpt>
      <trkpt lat="42.58915" lon="18.22999">
        <ele>123.014003</ele>
        <time>2022-06-01T12:05:14.547Z</time>
      </trkpt>
      <trkpt lat="42.59119" lon="18.23002">
        <ele>130.610155</ele>
        <time>2022-06-01T12:07:06.546Z</time>
      </trkpt>
      <trkpt lat="42.59332" lon="18.22992">
        <ele>135.457599</ele>
        <time>2022-06-01T12:08:40.563Z</time>
      </trkpt>
      <trkpt lat="42.59537" lon="18.23101">
        <ele>128.345459</ele>
        <time>2022-06-01T12:09:41.547Z</time>
      </trkpt>
      <trkpt lat="42.59746" lon="18.23083">
        <ele>129.428307</ele>
        <time>2022-06-01T12:10:26.546Z</time>
      </trkpt>
      <trkpt lat="42.59908" lon="18.23273">
        <ele>127.629767</ele>
        <time>2022-06-01T12:11:08.552Z</time>
      </trkpt>
      <trkpt lat="42.6009" lon="18.232">
        <ele>132.860166</ele>
        <time>2022-06-01T12:11:48.547Z</time>
      </trkpt>
      <trkpt lat="42.60304" lon="18.23176">
        <ele>129.913921</ele>
        <time>2022-06-01T12:12:31.576Z</time>
      </trkpt>
      <trkpt lat="42.60495" lon="18.23281">
        <ele>121.19538</ele>
        <time>2022-06-01T12:13:12.681Z</time>
      </trkpt>
      <trkpt lat="42.60712" lon="18.23229">
        <ele>128.232971</ele>
        <time>2022-06-01T12:13:57.609Z</time>
      </trkpt>
      <trkpt lat="42.60868" lon="18.2305">
        <ele>129.937162</ele>
        <time>2022-06-01T12:14:39.599Z</time>
      </trkpt>
      <trkpt lat="42.60999" lon="18.22842">
        <ele>126.203044</ele>
        <time>2022-06-01T12:15:21.581Z</time>
      </trkpt>
      <trkpt lat="42.612" lon="18.22727">
        <ele>127.610502</ele>
        <time>2022-06-01T12:16:06.577Z</time>
      </trkpt>
      <trkpt lat="42.61354" lon="18.22553">
        <ele>125.05182</ele>
        <time>2022-06-01T12:16:48.583Z</time>
      </trkpt>
      <trkpt lat="42.6145" lon="18.2231">
        <ele>117.754487</ele>
        <time>2022-06-01T12:17:30.618Z</time>
      </trkpt>
      <trkpt lat="42.61507" lon="18.21995">
        <ele>112.73475</ele>
        <time>2022-06-01T12:18:24.608Z</time>
      </trkpt>
      <trkpt lat="42.61615" lon="18.21729">
        <ele>117.944384</ele>
        <time>2022-06-01T12:19:14.590Z</time>
      </trkpt>
      <trkpt lat="42.61758" lon="18.2154">
        <ele>126.503577</ele>
        <time>2022-06-01T12:19:56.588Z</time>
      </trkpt>
      <trkpt lat="42.61933" lon="18.21389">
        <ele>125.182035</ele>
        <time>2022-06-01T12:20:38.589Z</time>
      </trkpt>
      <trkpt lat="42.62109" lon="18.21215">
        <ele>121.125945</ele>
        <time>2022-06-01T12:21:20.570Z</time>
      </trkpt>
      <trkpt lat="42.62323" lon="18.21109">
        <ele>119.337383</ele>
        <time>2022-06-01T12:22:00.574Z</time>
      </trkpt>
      <trkpt lat="42.62489" lon="18.20794">
        <ele>108.430045</ele>
        <time>2022-06-01T12:22:42.572Z</time>
      </trkpt>
      <trkpt lat="42.62408" lon="18.20452">
        <ele>92.47243</ele>
        <time>2022-06-01T12:23:12.578Z</time>
      </trkpt>
      <trkpt lat="42.62559" lon="18.20076">
        <ele>80.902404</ele>
        <time>2022-06-01T12:23:51.620Z</time>
      </trkpt>
      <trkpt lat="42.62518" lon="18.19785">
        <ele>69.680035</ele>
        <time>2022-06-01T12:24:15.562Z</time>
      </trkpt>
      <trkpt lat="42.62524" lon="18.19337">
        <ele>50.527161</ele>
        <time>2022-06-01T12:24:55.577Z</time>
      </trkpt>
      <trkpt lat="42.62561" lon="18.19258">
        <ele>51.779468</ele>
        <time>2022-06-01T12:26:58.547Z</time>
      </trkpt>
      <trkpt lat="42.62716" lon="18.19056">
        <ele>59.201685</ele>
        <time>2022-06-01T12:28:18.587Z</time>
      </trkpt>
      <trkpt lat="42.62823" lon="18.18773">
        <ele>48.528782</ele>
        <time>2022-06-01T12:29:19.579Z</time>
      </trkpt>
      <trkpt lat="42.62892" lon="18.18454">
        <ele>47.799462</ele>
        <time>2022-06-01T12:30:24.557Z</time>
      </trkpt>
      <trkpt lat="42.63073" lon="18.18546">
        <ele>55.741842</ele>
        <time>2022-06-01T12:31:44.615Z</time>
      </trkpt>
      <trkpt lat="42.63222" lon="18.18408">
        <ele>56.897967</ele>
        <time>2022-06-01T12:32:48.577Z</time>
      </trkpt>
      <trkpt lat="42.63367" lon="18.18211">
        <ele>53.896286</ele>
        <time>2022-06-01T12:33:52.563Z</time>
      </trkpt>
      <trkpt lat="42.63404" lon="18.17937">
        <ele>48.604422</ele>
        <time>2022-06-01T12:34:51.642Z</time>
      </trkpt>
      <trkpt lat="42.63511" lon="18.17671">
        <ele>53.162781</ele>
        <time>2022-06-01T12:35:54.633Z</time>
      </trkpt>
      <trkpt lat="42.63556" lon="18.17393">
        <ele>65.906098</ele>
        <time>2022-06-01T12:37:37.573Z</time>
      </trkpt>
      <trkpt lat="42.63547" lon="18.17096">
        <ele>59.331562</ele>
        <time>2022-06-01T12:38:38.578Z</time>
      </trkpt>
      <trkpt lat="42.63525" lon="18.16846">
        <ele>71.685299</ele>
        <time>2022-06-01T12:40:36.569Z</time>
      </trkpt>
      <trkpt lat="42.6334" lon="18.16943">
        <ele>92.124214</ele>
        <time>2022-06-01T12:43:10.581Z</time>
      </trkpt>
      <trkpt lat="42.6323" lon="18.1689">
        <ele>103.02445</ele>
        <time>2022-06-01T12:45:47.564Z</time>
      </trkpt>
      <trkpt lat="42.63231" lon="18.16602">
        <ele>110.815483</ele>
        <time>2022-06-01T12:47:16.594Z</time>
      </trkpt>
      <trkpt lat="42.63206" lon="18.16321">
        <ele>118.579006</ele>
        <time>2022-06-01T12:49:01.592Z</time>
      </trkpt>
      <trkpt lat="42.63073" lon="18.16134">
        <ele>123.059202</ele>
        <time>2022-06-01T12:50:41.606Z</time>
      </trkpt>
      <trkpt lat="42.63049" lon="18.15867">
        <ele>131.9838</ele>
        <time>2022-06-01T12:52:44.590Z</time>
      </trkpt>
      <trkpt lat="42.62973" lon="18.15802">
        <ele>144.738921</ele>
        <time>2022-06-01T12:55:13.610Z</time>
      </trkpt>
      <trkpt lat="42.62923" lon="18.16072">
        <ele>148.355589</ele>
        <time>2022-06-01T13:02:08.604Z</time>
      </trkpt>
      <trkpt lat="42.62924" lon="18.15978">
        <ele>158.60089</ele>
        <time>2022-06-01T13:05:00.579Z</time>
      </trkpt>
      <trkpt lat="42.62934" lon="18.15698">
        <ele>169.856652</ele>
        <time>2022-06-01T13:07:03.587Z</time>
      </trkpt>
      <trkpt lat="42.63" lon="18.15451">
        <ele>181.797082</ele>
        <time>2022-06-01T13:09:18.615Z</time>
      </trkpt>
      <trkpt lat="42.63028" lon="18.15136">
        <ele>191.095272</ele>
        <time>2022-06-01T13:10:40.576Z</time>
      </trkpt>
      <trkpt lat="42.63135" lon="18.1481">
        <ele>188.622609</ele>
        <time>2022-06-01T13:11:22.562Z</time>
      </trkpt>
      <trkpt lat="42.63186" lon="18.14541">
        <ele>194.562916</ele>
        <time>2022-06-01T13:13:15.556Z</time>
      </trkpt>
      <trkpt lat="42.63299" lon="18.14341">
        <ele>222.271795</ele>
        <time>2022-06-01T13:15:40.589Z</time>
      </trkpt>
      <trkpt lat="42.63365" lon="18.14093">
        <ele>225.05897</ele>
        <time>2022-06-01T13:20:33.560Z</time>
      </trkpt>
      <trkpt lat="42.63317" lon="18.13828">
        <ele>234.870826</ele>
        <time>2022-06-01T13:23:00.585Z</time>
      </trkpt>
      <trkpt lat="42.6344" lon="18.13584">
        <ele>238.822358</ele>
        <time>2022-06-01T13:25:21.586Z</time>
      </trkpt>
      <trkpt lat="42.63666" lon="18.13386">
        <ele>226.175122</ele>
        <time>2022-06-01T13:26:01.618Z</time>
      </trkpt>
      <trkpt lat="42.63812" lon="18.13074">
        <ele>199.443547</ele>
        <time>2022-06-01T13:26:43.587Z</time>
      </trkpt>
      <trkpt lat="42.63966" lon="18.128">
        <ele>173.152359</ele>
        <time>2022-06-01T13:27:14.589Z</time>
      </trkpt>
      <trkpt lat="42.64053" lon="18.12542">
        <ele>145.573132</ele>
        <time>2022-06-01T13:27:45.569Z</time>
      </trkpt>
      <trkpt lat="42.64113" lon="18.12189">
        <ele>115.330158</ele>
        <time>2022-06-01T13:28:27.587Z</time>
      </trkpt>
      <trkpt lat="42.64036" lon="18.12413">
        <ele>120.691272</ele>
        <time>2022-06-01T13:29:55.584Z</time>
      </trkpt>
      <trkpt lat="42.63995" lon="18.12481">
        <ele>110.16297</ele>
        <time>2022-06-01T13:30:40.588Z</time>
      </trkpt>
      <trkpt lat="42.64072" lon="18.12083">
        <ele>92.068136</ele>
        <time>2022-06-01T13:31:22.571Z</time>
      </trkpt>
      <trkpt lat="42.6417" lon="18.11719">
        <ele>76.145696</ele>
        <time>2022-06-01T13:32:02.616Z</time>
      </trkpt>
      <trkpt lat="42.64191" lon="18.1136">
        <ele>63.758088</ele>
        <time>2022-06-01T13:32:47.562Z</time>
      </trkpt>
      <trkpt lat="42.64234" lon="18.11101">
        <ele>64.92905</ele>
        <time>2022-06-01T13:34:25.543Z</time>
      </trkpt>
      <trkpt lat="42.64313" lon="18.10831">
        <ele>78.828864</ele>
        <time>2022-06-01T13:35:40.541Z</time>
      </trkpt>
      <trkpt lat="42.64167" lon="18.10673">
        <ele>58.854577</ele>
        <time>2022-06-01T13:37:15.561Z</time>
      </trkpt>
      <trkpt lat="42.64141" lon="18.10809">
        <ele>50.79451</ele>
        <time>2022-06-01T13:48:13.557Z</time>
      </trkpt>
      <trkpt lat="42.64115" lon="18.10938">
        <ele>50.79451</ele>
        <time>2022-06-01T13:50:56.390Z</time>
      </trkpt>
    </trkseg>
  </trk>
</gpx>